createdAt,value
2023-04-21T00:01:20.491Z,8.16
2023-04-21T00:02:52.705Z,8.17
2023-04-21T00:04:25.457Z,8.15
2023-04-21T00:06:00.647Z,8.13
2023-04-21T00:07:34.500Z,8.12
2023-04-21T00:09:06.559Z,8.09
2023-04-21T00:10:38.725Z,8.08
2023-04-21T00:12:10.836Z,8.05
2023-04-21T00:13:43.103Z,8.04
2023-04-21T00:15:15.100Z,8.00
2023-04-21T00:16:47.676Z,7.99
2023-04-21T00:18:19.714Z,7.96
2023-04-21T00:19:52.261Z,7.91
2023-04-21T00:21:24.395Z,7.89
2023-04-21T00:22:57.236Z,7.88
2023-04-21T00:24:29.352Z,7.85
2023-04-21T00:26:03.221Z,7.83
2023-04-21T00:27:35.392Z,7.79
2023-04-21T00:29:07.511Z,7.79
2023-04-21T00:30:39.622Z,7.79
2023-04-21T00:32:11.914Z,7.80
2023-04-21T00:33:44.009Z,7.82
2023-04-21T00:35:16.120Z,7.86
2023-04-21T00:36:48.322Z,7.88
2023-04-21T00:38:20.583Z,7.91
2023-04-21T00:39:52.714Z,7.92
2023-04-21T00:41:24.811Z,7.88
2023-04-21T00:42:56.950Z,7.80
2023-04-21T00:44:29.018Z,7.77
2023-04-21T00:46:01.175Z,7.75
2023-04-21T00:47:33.540Z,7.75
2023-04-21T00:49:07.581Z,7.80
2023-04-21T00:50:39.640Z,7.81
2023-04-21T00:52:12.189Z,7.78
2023-04-21T00:53:44.718Z,7.76
2023-04-21T00:55:17.284Z,7.73
2023-04-21T00:56:49.755Z,7.69
2023-04-21T00:58:21.922Z,7.63
2023-04-21T00:59:53.991Z,7.61
2023-04-21T01:01:26.438Z,7.59
2023-04-21T01:03:00.659Z,7.64
2023-04-21T01:04:37.421Z,7.63
2023-04-21T01:06:10.088Z,7.66
2023-04-21T01:07:42.232Z,7.58
2023-04-21T01:09:14.387Z,7.53
2023-04-21T01:10:46.502Z,7.46
2023-04-21T01:12:18.569Z,7.42
2023-04-21T01:13:54.285Z,7.39
2023-04-21T01:15:27.859Z,7.30
2023-04-21T01:17:00.382Z,7.26
2023-04-21T01:18:32.652Z,7.21
2023-04-21T01:20:09.405Z,7.19
2023-04-21T01:21:42.076Z,7.09
2023-04-21T01:23:14.205Z,7.04
2023-04-21T01:24:48.209Z,7.03
2023-04-21T01:26:21.977Z,7.02
2023-04-21T01:27:54.116Z,7.03
2023-04-21T01:29:26.343Z,7.05
2023-04-21T01:30:58.494Z,7.03
2023-04-21T01:32:30.932Z,7.05
2023-04-21T01:34:06.331Z,7.07
2023-04-21T01:35:38.428Z,7.05
2023-04-21T01:37:17.904Z,7.05
2023-04-21T01:38:49.974Z,7.00
2023-04-21T01:40:22.092Z,6.96
2023-04-21T01:41:56.086Z,6.95
2023-04-21T01:43:28.206Z,6.93
2023-04-21T01:45:00.762Z,6.97
2023-04-21T01:46:32.868Z,7.00
2023-04-21T01:48:05.148Z,7.00
2023-04-21T01:49:37.250Z,6.99
2023-04-21T01:51:09.330Z,6.97
2023-04-21T01:52:42.033Z,6.96
2023-04-21T01:54:14.326Z,6.92
2023-04-21T01:55:46.403Z,6.88
2023-04-21T01:57:18.738Z,6.86
2023-04-21T01:58:50.972Z,6.82
2023-04-21T02:00:23.028Z,6.82
2023-04-21T02:01:55.160Z,6.79
2023-04-21T02:03:27.540Z,6.76
2023-04-21T02:04:59.670Z,6.70
2023-04-21T02:06:32.085Z,6.64
2023-04-21T02:08:04.275Z,6.63
2023-04-21T02:09:36.968Z,6.63
2023-04-21T02:11:09.052Z,6.59
2023-04-21T02:12:41.098Z,6.57
2023-04-21T02:14:13.201Z,6.58
2023-04-21T02:15:45.458Z,6.57
2023-04-21T02:17:18.209Z,6.58
2023-04-21T02:18:50.439Z,6.61
2023-04-21T02:20:22.552Z,6.54
2023-04-21T02:21:54.616Z,6.52
2023-04-21T02:23:26.707Z,6.53
2023-04-21T02:24:58.852Z,6.51
2023-04-21T02:26:31.103Z,6.50
2023-04-21T02:28:03.300Z,6.48
2023-04-21T02:29:35.361Z,6.48
2023-04-21T02:31:07.643Z,6.49
2023-04-21T02:32:43.305Z,6.52
2023-04-21T02:34:15.563Z,6.57
2023-04-21T02:35:47.672Z,6.60
2023-04-21T02:37:20.060Z,6.62
2023-04-21T02:38:52.433Z,6.64
2023-04-21T02:40:24.619Z,6.61
2023-04-21T02:41:57.207Z,6.61
2023-04-21T02:43:29.291Z,6.59
2023-04-21T02:45:01.460Z,6.57
2023-04-21T02:46:33.595Z,6.57
2023-04-21T02:48:06.016Z,6.57
2023-04-21T02:49:44.393Z,6.57
2023-04-21T02:51:16.580Z,6.51
2023-04-21T02:52:48.673Z,6.49
2023-04-21T02:54:20.769Z,6.50
2023-04-21T02:55:53.133Z,6.53
2023-04-21T02:57:25.207Z,6.52
2023-04-21T02:58:57.537Z,6.54
2023-04-21T03:00:29.688Z,6.54
2023-04-21T03:02:01.880Z,6.55
2023-04-21T03:03:34.281Z,6.54
2023-04-21T03:05:06.982Z,6.54
2023-04-21T03:06:39.061Z,6.53
2023-04-21T03:08:11.215Z,6.55
2023-04-21T03:09:43.388Z,6.58
2023-04-21T03:11:15.664Z,6.61
2023-04-21T03:12:50.497Z,6.62
2023-04-21T03:14:22.640Z,6.62
2023-04-21T03:15:54.742Z,6.64
2023-04-21T03:17:27.381Z,6.69
2023-04-21T03:18:59.486Z,6.72
2023-04-21T03:20:31.664Z,6.74
2023-04-21T03:22:04.484Z,6.75
2023-04-21T03:23:36.589Z,6.79
2023-04-21T03:25:08.833Z,6.81
2023-04-21T03:26:41.521Z,6.81
2023-04-21T03:28:14.098Z,6.79
2023-04-21T03:29:46.200Z,6.78
2023-04-21T03:31:18.350Z,6.81
2023-04-21T03:32:51.085Z,6.82
2023-04-21T03:34:23.287Z,6.85
2023-04-21T03:35:55.501Z,6.88
2023-04-21T03:37:27.838Z,6.92
2023-04-21T03:39:12.769Z,6.95
2023-04-21T03:40:52.209Z,6.96
2023-04-21T03:42:24.470Z,6.96
2023-04-21T03:43:56.540Z,6.96
2023-04-21T03:45:28.951Z,6.96
2023-04-21T03:47:01.210Z,6.98
2023-04-21T03:48:33.381Z,7.04
2023-04-21T03:50:06.339Z,7.07
2023-04-21T03:51:38.496Z,7.07
2023-04-21T03:53:10.732Z,7.11
2023-04-21T03:54:42.841Z,7.12
2023-04-21T03:56:14.978Z,7.17
2023-04-21T03:57:47.235Z,7.19
2023-04-21T03:59:19.471Z,7.23
2023-04-21T04:00:51.796Z,7.23
2023-04-21T04:02:24.061Z,7.28
2023-04-21T04:03:56.585Z,7.34
2023-04-21T04:05:29.028Z,7.39
2023-04-21T04:07:01.252Z,7.44
2023-04-21T04:08:33.375Z,7.46
2023-04-21T04:10:05.706Z,7.47
2023-04-21T04:11:37.837Z,7.55
2023-04-21T04:13:10.135Z,7.59
2023-04-21T04:14:42.273Z,7.62
2023-04-21T04:16:14.423Z,7.66
2023-04-21T04:17:46.637Z,7.68
2023-04-21T04:19:19.121Z,7.69
2023-04-21T04:20:51.497Z,7.72
2023-04-21T04:22:23.585Z,7.74
2023-04-21T04:23:56.088Z,7.76
2023-04-21T04:25:28.312Z,7.80
2023-04-21T04:27:02.660Z,7.86
2023-04-21T04:28:35.313Z,7.89
2023-04-21T04:30:08.233Z,7.91
2023-04-21T04:31:40.523Z,7.97
2023-04-21T04:33:12.774Z,8.02
2023-04-21T04:34:45.153Z,8.05
2023-04-21T04:36:17.280Z,8.07
2023-04-21T04:37:50.152Z,8.09
2023-04-21T04:39:23.107Z,8.14
2023-04-21T04:40:55.940Z,8.20
2023-04-21T04:42:28.030Z,8.21
2023-04-21T04:44:01.095Z,8.25
2023-04-21T04:45:33.565Z,8.30
2023-04-21T04:47:06.090Z,8.34
2023-04-21T04:48:38.411Z,8.38
2023-04-21T04:50:10.756Z,8.43
2023-04-21T04:51:42.963Z,8.45
2023-04-21T04:53:15.128Z,8.51
2023-04-21T04:54:47.236Z,8.55
2023-04-21T04:56:19.307Z,8.59
2023-04-21T04:57:52.155Z,8.64
2023-04-21T04:59:24.307Z,8.70
2023-04-21T05:00:56.466Z,8.76
2023-04-21T05:02:28.794Z,8.82
2023-04-21T05:04:01.183Z,8.89
2023-04-21T05:05:33.606Z,8.96
2023-04-21T05:07:08.078Z,9.03
2023-04-21T05:08:41.852Z,9.09
2023-04-21T05:10:14.192Z,9.16
2023-04-21T05:11:46.285Z,9.19
2023-04-21T05:13:18.721Z,9.26
2023-04-21T05:14:50.978Z,9.31
2023-04-21T05:16:23.215Z,9.36
2023-04-21T05:17:55.506Z,9.40
2023-04-21T05:19:27.677Z,9.49
2023-04-21T05:20:59.823Z,9.53
2023-04-21T05:22:31.985Z,9.60
2023-04-21T05:24:04.379Z,9.65
2023-04-21T05:25:38.929Z,9.70
2023-04-21T05:27:11.167Z,9.74
2023-04-21T05:28:43.353Z,9.81
2023-04-21T05:30:15.488Z,9.85
2023-04-21T05:31:47.635Z,9.90
2023-04-21T05:33:20.185Z,9.95
2023-04-21T05:34:52.633Z,10.00
2023-04-21T05:36:25.444Z,10.05
2023-04-21T05:37:57.590Z,10.08
2023-04-21T05:39:29.676Z,10.14
2023-04-21T05:41:01.825Z,10.19
2023-04-21T05:42:33.935Z,10.23
2023-04-21T05:44:06.213Z,10.28
2023-04-21T05:45:41.582Z,10.32
2023-04-21T05:47:13.851Z,10.32
2023-04-21T05:48:46.082Z,10.36
2023-04-21T05:50:18.237Z,10.37
2023-04-21T05:51:50.372Z,10.38
2023-04-21T05:53:24.080Z,10.45
2023-04-21T05:54:56.179Z,10.47
2023-04-21T05:56:28.293Z,10.50
2023-04-21T05:58:00.427Z,10.55
2023-04-21T05:59:32.561Z,10.58
2023-04-21T06:01:05.090Z,10.62
2023-04-21T06:02:37.582Z,10.65
2023-04-21T06:04:10.166Z,10.68
2023-04-21T06:05:42.595Z,10.71
2023-04-21T06:07:15.566Z,10.73
2023-04-21T06:08:48.983Z,10.77
2023-04-21T06:10:21.610Z,10.83
2023-04-21T06:11:53.818Z,10.85
2023-04-21T06:13:27.897Z,10.88
2023-04-21T06:15:00.330Z,10.89
2023-04-21T06:16:34.777Z,10.96
2023-04-21T06:18:07.185Z,10.96
2023-04-21T06:19:41.273Z,10.98
2023-04-21T06:21:14.081Z,11.05
2023-04-21T06:22:49.265Z,11.07
2023-04-21T06:24:25.786Z,11.13
2023-04-21T06:26:05.820Z,11.21
2023-04-21T06:27:38.026Z,11.23
2023-04-21T06:29:10.195Z,11.30
2023-04-21T06:30:42.566Z,11.35
2023-04-21T06:32:14.694Z,11.41
2023-04-21T06:33:46.871Z,11.50
2023-04-21T06:35:20.841Z,11.57
2023-04-21T06:36:53.603Z,11.67
2023-04-21T06:38:25.826Z,11.74
2023-04-21T06:39:57.962Z,11.82
2023-04-21T06:41:30.233Z,11.85
2023-04-21T06:43:02.413Z,11.91
2023-04-21T06:44:34.665Z,11.98
2023-04-21T06:46:06.898Z,12.01
2023-04-21T06:47:39.079Z,12.07
2023-04-21T06:49:11.567Z,12.09
2023-04-21T06:50:45.136Z,12.14
2023-04-21T06:52:18.290Z,12.24
2023-04-21T06:53:52.145Z,12.22
2023-04-21T06:55:24.580Z,12.24
2023-04-21T06:56:57.675Z,12.27
2023-04-21T06:58:29.813Z,12.28
2023-04-21T07:00:01.914Z,12.30
2023-04-21T07:01:34.179Z,12.31
2023-04-21T07:03:07.027Z,12.38
2023-04-21T07:04:39.522Z,12.44
2023-04-21T07:06:11.693Z,12.49
2023-04-21T07:07:43.903Z,12.55
2023-04-21T07:09:16.050Z,12.61
2023-04-21T07:10:48.201Z,12.65
2023-04-21T07:12:20.336Z,12.70
2023-04-21T07:13:52.585Z,12.73
2023-04-21T07:15:24.742Z,12.80
2023-04-21T07:16:57.669Z,12.83
2023-04-21T07:18:29.880Z,12.89
2023-04-21T07:20:02.251Z,12.96
2023-04-21T07:21:36.585Z,13.00
2023-04-21T07:23:08.682Z,13.03
2023-04-21T07:24:40.965Z,13.07
2023-04-21T07:26:13.221Z,13.10
2023-04-21T07:27:45.368Z,13.13
2023-04-21T07:29:17.767Z,13.15
2023-04-21T07:30:50.354Z,13.20
2023-04-21T07:32:22.601Z,13.20
2023-04-21T07:33:54.824Z,13.19
2023-04-21T07:35:29.109Z,13.25
2023-04-21T07:37:01.266Z,13.27
2023-04-21T07:38:34.731Z,13.29
2023-04-21T07:40:11.565Z,13.33
2023-04-21T07:41:44.154Z,13.31
2023-04-21T07:43:16.372Z,13.32
2023-04-21T07:44:49.315Z,13.34
2023-04-21T07:46:23.315Z,13.40
2023-04-21T07:47:55.600Z,13.42
2023-04-21T07:49:27.903Z,13.47
2023-04-21T07:51:00.880Z,13.53
2023-04-21T07:52:33.110Z,13.60
2023-04-21T07:54:05.311Z,13.64
2023-04-21T07:55:37.763Z,13.64
2023-04-21T07:57:10.142Z,13.67
2023-04-21T07:58:42.335Z,13.74
2023-04-21T08:00:15.247Z,13.77
2023-04-21T08:01:47.469Z,13.77
2023-04-21T08:03:22.189Z,13.83
2023-04-21T08:04:56.251Z,13.92
2023-04-21T08:06:29.322Z,13.98
2023-04-21T08:08:01.687Z,14.05
2023-04-21T08:09:33.908Z,14.08
2023-04-21T08:11:06.184Z,14.15
2023-04-21T08:12:38.331Z,14.25
2023-04-21T08:14:12.293Z,14.36
2023-04-21T08:15:44.408Z,14.50
2023-04-21T08:17:16.763Z,14.62
2023-04-21T08:18:48.907Z,14.71
2023-04-21T08:20:21.021Z,14.81
2023-04-21T08:21:53.209Z,14.88
2023-04-21T08:23:25.428Z,14.93
2023-04-21T08:24:57.726Z,14.99
2023-04-21T08:26:30.774Z,15.02
2023-04-21T08:28:02.994Z,15.05
2023-04-21T08:29:35.212Z,15.08
2023-04-21T08:31:07.358Z,15.02
2023-04-21T08:32:39.539Z,15.03
2023-04-21T08:34:11.673Z,15.06
2023-04-21T08:35:54.941Z,15.09
2023-04-21T08:37:36.083Z,15.10
2023-04-21T08:39:08.250Z,15.12
2023-04-21T08:40:40.489Z,15.15
2023-04-21T08:42:19.490Z,15.18
2023-04-21T08:43:51.687Z,15.21
2023-04-21T08:45:23.938Z,15.17
2023-04-21T08:46:56.513Z,15.24
2023-04-21T08:48:30.297Z,15.28
2023-04-21T08:50:02.571Z,15.30
2023-04-21T08:51:35.296Z,15.31
2023-04-21T08:53:07.526Z,15.35
2023-04-21T08:54:39.808Z,15.48
2023-04-21T08:56:12.127Z,15.54
2023-04-21T08:57:44.247Z,15.61
2023-04-21T08:59:17.066Z,15.68
2023-04-21T09:00:50.073Z,15.74
2023-04-21T09:02:22.868Z,15.74
2023-04-21T09:03:55.321Z,15.74
2023-04-21T09:05:32.761Z,15.79
2023-04-21T09:07:05.108Z,15.76
2023-04-21T09:08:43.867Z,15.84
2023-04-21T09:10:16.234Z,15.83
2023-04-21T09:11:59.107Z,15.86
2023-04-21T09:13:33.262Z,15.89
2023-04-21T09:15:06.286Z,15.95
2023-04-21T09:16:38.550Z,16.04
2023-04-21T09:18:21.642Z,16.11
2023-04-21T09:19:54.368Z,16.12
2023-04-21T09:21:31.444Z,16.18
2023-04-21T09:23:07.783Z,16.26
2023-04-21T09:24:58.336Z,16.31
2023-04-21T09:26:32.264Z,16.35
2023-04-21T09:28:04.722Z,16.40
2023-04-21T09:29:36.913Z,16.49
2023-04-21T09:31:17.759Z,16.58
2023-04-21T09:32:50.496Z,16.57
2023-04-21T09:34:25.349Z,16.59
2023-04-21T09:36:01.730Z,16.61
2023-04-21T09:37:35.058Z,16.63
2023-04-21T09:40:42.873Z,16.68
2023-04-21T09:42:15.052Z,16.74
2023-04-21T09:43:47.221Z,16.85
2023-04-21T09:47:04.478Z,16.89
2023-04-21T09:48:37.248Z,16.83
2023-04-21T09:50:12.678Z,16.79
2023-04-21T09:52:06.048Z,16.73
2023-04-21T09:53:40.937Z,16.69
2023-04-21T09:55:13.724Z,16.60
2023-04-21T09:56:50.009Z,16.57
2023-04-21T09:58:25.167Z,16.48
2023-04-21T10:00:05.786Z,16.42
2023-04-21T10:01:39.533Z,16.53
2023-04-21T10:03:12.977Z,16.65
2023-04-21T10:04:45.728Z,16.75
2023-04-21T10:06:18.192Z,16.85
2023-04-21T10:07:51.142Z,16.98
2023-04-21T10:09:24.677Z,17.08
2023-04-21T10:10:56.738Z,17.17
2023-04-21T10:12:29.159Z,17.16
2023-04-21T10:14:01.535Z,17.15
2023-04-21T10:15:40.182Z,17.18
2023-04-21T10:17:12.845Z,17.14
2023-04-21T10:18:46.298Z,17.20
2023-04-21T10:20:18.678Z,17.25
2023-04-21T10:21:51.353Z,17.37
2023-04-21T10:23:38.037Z,17.50
2023-04-21T10:25:10.684Z,17.47
2023-04-21T10:26:42.935Z,17.50
2023-04-21T10:28:19.005Z,17.58
2023-04-21T10:29:56.664Z,17.63
2023-04-21T10:31:48.102Z,17.79
2023-04-21T10:33:24.521Z,17.90
2023-04-21T10:34:57.752Z,18.01
2023-04-21T10:36:29.970Z,18.12
2023-04-21T10:38:02.139Z,18.07
2023-04-21T10:39:44.752Z,17.95
2023-04-21T10:41:33.344Z,18.03
2023-04-21T10:43:05.996Z,18.05
2023-04-21T10:44:42.856Z,18.09
2023-04-21T10:46:37.054Z,18.06
2023-04-21T10:48:16.331Z,18.09
2023-04-21T10:49:50.632Z,18.05
2023-04-21T10:51:23.333Z,18.02
2023-04-21T10:53:09.114Z,17.94
2023-04-21T10:54:47.495Z,17.98
2023-04-21T10:56:20.109Z,17.95
2023-04-21T10:57:52.254Z,17.98
2023-04-21T10:59:25.469Z,17.99
2023-04-21T11:00:59.604Z,18.00
2023-04-21T11:02:31.880Z,18.03
2023-04-21T11:04:04.865Z,18.09
2023-04-21T11:05:41.697Z,18.12
2023-04-21T11:07:18.945Z,18.23
2023-04-21T11:08:58.129Z,18.28
2023-04-21T11:10:30.370Z,18.31
2023-04-21T11:12:10.535Z,18.54
2023-04-21T11:13:42.642Z,18.61
2023-04-21T11:15:16.269Z,18.71
2023-04-21T11:16:48.485Z,18.74
2023-04-21T11:18:21.329Z,18.80
2023-04-21T11:19:55.073Z,18.89
2023-04-21T11:21:30.375Z,18.93
2023-04-21T11:23:02.478Z,18.87
2023-04-21T11:24:34.897Z,18.70
2023-04-21T11:26:06.975Z,18.65
2023-04-21T11:27:39.087Z,18.61
2023-04-21T11:29:12.607Z,18.63
2023-04-21T11:30:44.707Z,18.73
2023-04-21T11:32:17.469Z,18.77
2023-04-21T11:33:51.078Z,18.88
2023-04-21T11:35:23.802Z,18.69
2023-04-21T11:36:56.665Z,18.61
2023-04-21T11:38:43.068Z,18.81
2023-04-21T11:40:15.164Z,18.93
2023-04-21T11:41:48.849Z,18.99
2023-04-21T11:43:21.969Z,19.02
2023-04-21T11:44:57.979Z,18.92
2023-04-21T11:46:30.145Z,18.95
2023-04-21T11:48:16.060Z,18.93
2023-04-21T11:49:57.086Z,19.01
2023-04-21T11:51:37.707Z,19.05
2023-04-21T11:53:09.789Z,18.90
2023-04-21T11:54:41.948Z,18.82
2023-04-21T11:56:19.331Z,18.86
2023-04-21T11:57:54.247Z,18.93
2023-04-21T11:59:27.027Z,18.93
2023-04-21T12:00:59.195Z,18.78
2023-04-21T12:02:32.830Z,18.66
2023-04-21T12:04:05.407Z,18.70
2023-04-21T12:05:38.066Z,18.65
2023-04-21T12:07:10.363Z,18.66
2023-04-21T12:08:42.549Z,18.76
2023-04-21T12:10:19.331Z,18.95
2023-04-21T12:11:53.078Z,19.06
2023-04-21T12:13:27.637Z,19.08
2023-04-21T12:15:03.835Z,18.80
2023-04-21T12:16:37.952Z,18.88
2023-04-21T12:18:14.900Z,18.89
2023-04-21T12:19:47.488Z,18.94
2023-04-21T12:21:19.616Z,19.04
2023-04-21T12:22:52.782Z,19.16
2023-04-21T12:24:25.274Z,19.17
2023-04-21T12:25:58.092Z,19.24
2023-04-21T12:27:30.255Z,19.16
2023-04-21T12:29:02.504Z,19.09
2023-04-21T12:30:38.008Z,18.95
2023-04-21T12:32:12.159Z,18.85
2023-04-21T12:33:44.605Z,18.61
2023-04-21T12:35:16.903Z,18.36
2023-04-21T12:36:51.080Z,18.30
2023-04-21T12:38:23.386Z,18.45
2023-04-21T12:39:55.536Z,18.66
2023-04-21T12:41:27.688Z,18.86
2023-04-21T12:42:59.754Z,18.94
2023-04-21T12:44:32.121Z,18.96
2023-04-21T12:46:04.387Z,19.00
2023-04-21T12:47:38.019Z,18.89
2023-04-21T12:49:11.534Z,18.79
2023-04-21T12:50:43.736Z,18.73
2023-04-21T12:52:15.875Z,18.75
2023-04-21T12:53:48.021Z,18.92
2023-04-21T12:55:20.103Z,19.02
2023-04-21T12:56:52.234Z,19.10
2023-04-21T12:58:24.342Z,19.18
2023-04-21T12:59:56.465Z,19.21
2023-04-21T13:01:28.710Z,19.28
2023-04-21T13:03:01.584Z,19.48
2023-04-21T13:04:34.057Z,19.61
2023-04-21T13:06:06.868Z,19.69
2023-04-21T13:07:39.382Z,19.66
2023-04-21T13:09:11.892Z,19.64
2023-04-21T13:10:46.228Z,19.59
2023-04-21T13:12:18.383Z,19.57
2023-04-21T13:13:50.794Z,19.41
2023-04-21T13:15:22.986Z,19.30
2023-04-21T13:16:55.182Z,19.16
2023-04-21T13:18:27.523Z,18.98
2023-04-21T13:19:59.696Z,18.79
2023-04-21T13:21:33.135Z,18.75
2023-04-21T13:23:05.649Z,18.81
2023-04-21T13:24:37.895Z,18.86
2023-04-21T13:26:10.039Z,18.87
2023-04-21T13:27:42.413Z,18.92
2023-04-21T13:29:14.647Z,18.98
2023-04-21T13:30:47.019Z,18.97
2023-04-21T13:32:19.212Z,18.84
2023-04-21T13:33:53.015Z,18.67
2023-04-21T13:35:26.271Z,18.54
2023-04-21T13:36:58.388Z,18.49
2023-04-21T13:38:30.899Z,18.57
2023-04-21T13:40:03.317Z,18.78
2023-04-21T13:41:35.612Z,18.93
2023-04-21T13:44:46.795Z,18.91
2023-04-21T13:46:20.290Z,19.16
2023-04-21T13:47:52.664Z,19.24
2023-04-21T13:49:25.053Z,19.30
2023-04-21T13:50:57.256Z,19.31
2023-04-21T13:52:29.406Z,19.36
2023-04-21T13:54:01.621Z,19.46
2023-04-21T13:55:33.785Z,19.65
2023-04-21T13:57:06.091Z,19.73
2023-04-21T13:58:38.548Z,19.58
2023-04-21T14:00:13.914Z,19.45
2023-04-21T14:01:46.073Z,19.35
2023-04-21T14:03:18.445Z,19.28
2023-04-21T14:04:51.051Z,19.09
2023-04-21T14:06:23.428Z,18.94
2023-04-21T14:07:55.654Z,18.82
2023-04-21T14:09:27.758Z,18.84
2023-04-21T14:10:59.914Z,18.98
2023-04-21T14:12:32.237Z,18.98
2023-04-21T14:15:39.513Z,19.13
2023-04-21T14:17:11.946Z,19.14
2023-04-21T14:18:45.643Z,19.14
2023-04-21T14:20:17.801Z,19.24
2023-04-21T14:21:49.953Z,19.32
2023-04-21T14:23:22.135Z,19.25
2023-04-21T14:24:54.636Z,19.34
2023-04-21T14:26:26.855Z,19.29
2023-04-21T14:27:59.252Z,19.26
2023-04-21T14:29:31.670Z,19.32
2023-04-21T14:31:04.814Z,19.38
2023-04-21T14:32:37.221Z,19.54
2023-04-21T14:34:09.432Z,19.65
2023-04-21T14:35:42.515Z,19.59
2023-04-21T14:37:14.755Z,19.61
2023-04-21T14:38:47.053Z,19.69
2023-04-21T14:40:19.457Z,19.73
2023-04-21T14:41:52.240Z,19.59
2023-04-21T14:43:24.609Z,19.49
2023-04-21T14:44:56.711Z,19.44
2023-04-21T14:46:29.479Z,19.34
2023-04-21T14:48:01.790Z,19.11
2023-04-21T14:49:34.294Z,19.05
2023-04-21T14:51:09.754Z,18.96
2023-04-21T14:52:42.214Z,18.83
2023-04-21T14:54:14.340Z,18.81
2023-04-21T14:55:46.429Z,18.84
2023-04-21T14:57:21.084Z,18.78
2023-04-21T14:58:53.486Z,18.71
2023-04-21T15:00:26.278Z,18.69
2023-04-21T15:01:58.341Z,18.74
2023-04-21T15:03:30.608Z,18.83
2023-04-21T15:05:03.888Z,18.89
2023-04-21T15:06:35.896Z,18.95
2023-04-21T15:08:09.340Z,18.95
2023-04-21T15:09:45.953Z,18.98
2023-04-21T15:11:18.164Z,19.03
2023-04-21T15:12:50.291Z,18.83
2023-04-21T15:14:22.749Z,18.86
2023-04-21T15:15:54.908Z,18.85
2023-04-21T15:17:27.215Z,18.77
2023-04-21T15:18:59.675Z,18.74
2023-04-21T15:20:43.971Z,18.65
2023-04-21T15:22:17.648Z,18.62
2023-04-21T15:23:49.748Z,18.52
2023-04-21T15:25:21.953Z,18.51
2023-04-21T15:26:54.082Z,18.46
2023-04-21T15:28:26.552Z,18.44
2023-04-21T15:29:58.800Z,18.32
2023-04-21T15:31:31.746Z,18.35
2023-04-21T15:33:04.046Z,18.47
2023-04-21T15:34:36.321Z,18.46
2023-04-21T15:36:08.597Z,18.42
2023-04-21T15:37:40.861Z,18.43
2023-04-21T15:39:16.031Z,18.34
2023-04-21T15:41:00.275Z,18.32
2023-04-21T15:42:33.190Z,18.24
2023-04-21T15:44:05.599Z,18.24
2023-04-21T15:45:37.911Z,18.23
2023-04-21T15:47:10.050Z,18.20
2023-04-21T15:48:42.904Z,18.26
2023-04-21T15:50:16.413Z,18.31
2023-04-21T15:51:48.481Z,18.34
2023-04-21T15:53:20.860Z,18.28
2023-04-21T15:54:53.061Z,18.28
2023-04-21T15:58:37.781Z,18.33
2023-04-21T16:00:13.170Z,18.29
2023-04-21T16:01:45.435Z,18.26
2023-04-21T16:03:18.573Z,18.13
2023-04-21T16:04:51.088Z,17.87
2023-04-21T16:06:24.543Z,17.79
2023-04-21T16:07:56.603Z,17.80
2023-04-21T16:09:28.703Z,17.65
2023-04-21T16:11:01.423Z,17.64
2023-04-21T16:12:33.611Z,17.60
2023-04-21T16:14:06.319Z,17.55
2023-04-21T16:15:38.647Z,17.52
2023-04-21T16:17:11.127Z,17.45
2023-04-21T16:18:43.487Z,17.36
2023-04-21T16:20:16.087Z,17.28
2023-04-21T16:21:48.250Z,17.27
2023-04-21T16:23:20.431Z,17.24
2023-04-21T16:24:53.627Z,17.22
2023-04-21T16:26:25.597Z,17.21
2023-04-21T16:27:57.879Z,17.11
2023-04-21T16:29:30.349Z,17.07
2023-04-21T16:31:05.720Z,16.98
2023-04-21T16:32:38.012Z,16.93
2023-04-21T16:34:10.360Z,16.86
2023-04-21T16:35:42.575Z,16.81
2023-04-21T16:37:14.901Z,16.76
2023-04-21T16:38:47.241Z,16.69
2023-04-21T16:40:19.427Z,16.65
2023-04-21T16:41:51.531Z,16.61
2023-04-21T16:43:26.820Z,16.55
2023-04-21T16:44:59.593Z,16.51
2023-04-21T16:46:31.860Z,16.44
2023-04-21T16:48:04.374Z,16.41
2023-04-21T16:49:36.673Z,16.36
2023-04-21T16:51:08.824Z,16.29
2023-04-21T16:52:41.066Z,16.24
2023-04-21T16:54:13.226Z,16.19
2023-04-21T16:55:45.328Z,16.14
2023-04-21T16:57:18.032Z,16.08
2023-04-21T16:58:50.311Z,16.04
2023-04-21T17:00:22.426Z,15.96
2023-04-21T17:01:54.653Z,15.91
2023-04-21T17:03:29.437Z,15.83
2023-04-21T17:05:01.796Z,15.74
2023-04-21T17:06:34.694Z,15.66
2023-04-21T17:08:06.919Z,15.55
2023-04-21T17:09:39.157Z,15.44
2023-04-21T17:11:11.345Z,15.30
2023-04-21T17:12:43.486Z,15.26
2023-04-21T17:14:15.665Z,15.21
2023-04-21T17:15:48.199Z,15.20
2023-04-21T17:17:20.434Z,15.13
2023-04-21T17:18:52.602Z,15.09
2023-04-21T17:20:24.803Z,15.06
2023-04-21T17:21:56.945Z,15.01
2023-04-21T17:23:29.133Z,14.94
2023-04-21T17:25:01.268Z,14.92
2023-04-21T17:26:33.448Z,14.88
2023-04-21T17:28:05.906Z,14.82
2023-04-21T17:29:38.006Z,14.72
2023-04-21T17:31:15.178Z,14.49
2023-04-21T17:32:48.195Z,14.33
2023-04-21T17:34:20.441Z,14.25
2023-04-21T17:36:02.554Z,14.22
2023-04-21T17:37:35.618Z,14.14
2023-04-21T17:39:08.740Z,14.14
2023-04-21T17:40:41.019Z,14.11
2023-04-21T17:42:13.170Z,14.07
2023-04-21T17:43:45.376Z,14.08
2023-04-21T17:45:17.827Z,14.04
2023-04-21T17:46:49.985Z,13.99
2023-04-21T17:48:22.341Z,13.96
2023-04-21T17:49:54.492Z,13.95
2023-04-21T17:51:26.640Z,13.92
2023-04-21T17:52:58.780Z,13.87
2023-04-21T17:54:31.212Z,13.81
2023-04-21T17:56:03.458Z,13.76
2023-04-21T17:57:35.650Z,13.74
2023-04-21T17:59:08.119Z,13.73
2023-04-21T18:00:40.274Z,13.68
2023-04-21T18:02:12.651Z,13.62
2023-04-21T18:03:45.033Z,13.56
2023-04-21T18:05:17.551Z,13.51
2023-04-21T18:06:50.964Z,13.48
2023-04-21T18:08:23.120Z,13.51
2023-04-21T18:09:55.390Z,13.46
2023-04-21T18:11:27.821Z,13.45
2023-04-21T18:13:00.126Z,13.44
2023-04-21T18:14:32.267Z,13.46
2023-04-21T18:17:37.907Z,13.52
2023-04-21T18:19:10.055Z,13.59
2023-04-21T18:20:42.554Z,13.64
2023-04-21T18:22:14.788Z,13.67
2023-04-21T18:23:46.990Z,13.69
2023-04-21T18:25:30.679Z,13.73
2023-04-21T18:27:11.701Z,13.75
2023-04-21T18:28:43.912Z,13.78
2023-04-21T18:30:16.668Z,13.79
2023-04-21T18:31:49.013Z,13.80
2023-04-21T18:33:21.238Z,13.85
2023-04-21T18:34:53.769Z,13.84
2023-04-21T18:36:25.981Z,13.87
2023-04-21T18:37:58.140Z,13.86
2023-04-21T18:39:30.325Z,13.88
2023-04-21T18:41:02.899Z,13.85
2023-04-21T18:42:35.218Z,13.84
2023-04-21T18:44:07.337Z,13.79
2023-04-21T18:45:39.715Z,13.75
2023-04-21T18:47:12.547Z,13.74
2023-04-21T18:48:44.878Z,13.71
2023-04-21T18:50:17.122Z,13.71
2023-04-21T18:51:49.177Z,13.66
2023-04-21T18:53:21.234Z,13.62
2023-04-21T18:54:53.408Z,13.57
2023-04-21T18:56:25.672Z,13.55
2023-04-21T18:57:57.815Z,13.49
2023-04-21T18:59:30.415Z,13.46
2023-04-21T19:01:10.012Z,13.36
2023-04-21T19:02:42.586Z,13.45
2023-04-21T19:04:14.927Z,13.47
2023-04-21T19:05:47.610Z,13.48
2023-04-21T19:07:19.831Z,13.44
2023-04-21T19:08:53.178Z,13.41
2023-04-21T19:10:25.118Z,13.45
2023-04-21T19:11:57.297Z,13.38
2023-04-21T19:13:29.637Z,13.41
2023-04-21T19:15:02.407Z,13.38
2023-04-21T19:16:34.551Z,13.31
2023-04-21T19:18:07.018Z,13.29
2023-04-21T19:19:39.263Z,13.27
2023-04-21T19:21:13.958Z,13.25
2023-04-21T19:22:46.183Z,13.20
2023-04-21T19:24:18.430Z,13.15
2023-04-21T19:25:54.922Z,13.14
2023-04-21T19:27:27.099Z,13.15
2023-04-21T19:28:59.236Z,13.13
2023-04-21T19:32:15.762Z,13.12
2023-04-21T19:33:49.935Z,13.07
2023-04-21T19:35:22.219Z,13.10
2023-04-21T19:36:54.350Z,13.10
2023-04-21T19:38:27.301Z,13.12
2023-04-21T19:39:59.441Z,13.12
2023-04-21T19:41:31.688Z,13.16
2023-04-21T19:43:05.111Z,13.16
2023-04-21T19:44:37.701Z,13.24
2023-04-21T19:46:10.763Z,13.18
2023-04-21T19:47:42.932Z,13.16
2023-04-21T19:49:15.194Z,13.13
2023-04-21T19:50:47.551Z,13.08
2023-04-21T19:52:19.666Z,12.96
2023-04-21T19:54:03.217Z,12.90
2023-04-21T19:55:39.906Z,12.69
2023-04-21T19:57:12.032Z,12.55
2023-04-21T19:58:44.173Z,12.42
2023-04-21T20:00:17.008Z,12.32
2023-04-21T20:01:49.152Z,12.28
2023-04-21T20:03:22.043Z,12.28
2023-04-21T20:04:54.560Z,12.27
2023-04-21T20:06:27.729Z,12.22
2023-04-21T20:08:00.197Z,12.23
2023-04-21T20:09:32.284Z,12.25
2023-04-21T20:11:04.513Z,12.29
2023-04-21T20:12:36.988Z,12.32
2023-04-21T20:14:09.134Z,12.37
2023-04-21T20:15:41.360Z,12.38
2023-04-21T20:17:13.746Z,12.38
2023-04-21T20:18:46.033Z,12.37
2023-04-21T20:20:18.281Z,12.41
2023-04-21T20:21:50.599Z,12.40
2023-04-21T20:23:22.702Z,12.40